Time;durP1;ratioP1;P1;durP2;ratioP2;P2;SDS_P1;SDS_P2;PMS_P1;PMS_P2;Temp;Humidity;BMP_temperature;BMP_pressure;BME280_temperature;BME280_humidity;BME280_pressure;Samples;Min_cycle;Max_cycle;Signal;HPM_P1;HPM_P2
2022/09/02 00:01:45;;;;;;;10.27;3.27;;;16.90;99.90;;;;;;5072962;28;20378;-81
2022/09/02 00:04:24;;;;;;;7.50;3.28;;;16.90;99.90;;;;;;5076385;28;20869;-80
2022/09/02 00:06:53;;;;;;;8.40;3.20;;;16.90;99.90;;;;;;5076849;28;20370;-76
2022/09/02 00:09:23;;;;;;;8.45;3.35;;;16.90;99.90;;;;;;5078462;28;20374;-81
2022/09/02 00:11:52;;;;;;;9.90;3.13;;;17.10;99.90;;;;;;5077284;28;20381;-78
2022/09/02 00:14:24;;;;;;;13.40;3.40;;;17.20;99.90;;;;;;5074605;28;20481;-81
2022/09/02 00:16:51;;;;;;;14.43;3.72;;;17.30;99.90;;;;;;5074108;28;20386;-81
2022/09/02 00:19:21;;;;;;;9.13;3.20;;;17.50;99.90;;;;;;5075383;28;20377;-84
2022/09/02 00:21:49;;;;;;;7.10;2.55;;;17.50;99.90;;;;;;5077548;28;20370;-80
2022/09/02 00:24:17;;;;;;;4.35;2.28;;;17.50;99.90;;;;;;5076926;28;20385;-82
2022/09/02 00:26:45;;;;;;;5.88;2.60;;;17.30;99.90;;;;;;5077090;28;20435;-83
2022/09/02 00:29:14;;;;;;;10.60;2.55;;;17.40;99.90;;;;;;5076538;28;20470;-78
2022/09/02 00:31:44;;;;;;;8.07;2.60;;;17.50;99.90;;;;;;5076884;28;20873;-83
2022/09/02 00:34:12;;;;;;;13.20;2.73;;;17.50;99.90;;;;;;5076551;28;20405;-81
2022/09/02 00:36:39;;;;;;;12.85;2.60;;;17.60;99.90;;;;;;5076148;28;20489;-78
2022/09/02 00:39:07;;;;;;;12.17;2.50;;;17.70;99.90;;;;;;5075942;28;20358;-79
2022/09/02 00:41:36;;;;;;;10.88;2.30;;;17.80;99.90;;;;;;5108401;28;20802;-80
2022/09/02 00:44:08;;;;;;;6.97;2.17;;;17.80;99.90;;;;;;5075855;28;20453;-82
2022/09/02 00:46:35;;;;;;;17.80;2.72;;;18.00;99.90;;;;;;5075972;28;20376;-79
2022/09/02 00:49:13;;;;;;;12.37;2.43;;;18.10;99.90;;;;;;5075767;28;20378;-77
2022/09/02 00:51:53;;;;;;;11.85;2.75;;;18.20;99.90;;;;;;5075554;28;20370;-78
2022/09/02 00:54:23;;;;;;;12.07;2.73;;;18.30;99.90;;;;;;5075640;28;20366;-85
2022/09/02 00:56:51;;;;;;;14.23;3.28;;;18.40;99.90;;;;;;5075571;28;20461;-78
2022/09/02 00:59:27;;;;;;;12.45;2.80;;;18.30;99.90;;;;;;5075605;28;20370;-78
2022/09/02 01:01:55;;;;;;;11.77;2.80;;;18.30;99.90;;;;;;5075425;28;20428;-77
2022/09/02 01:04:22;;;;;;;11.60;3.10;;;18.30;99.90;;;;;;5075253;28;20370;-76
2022/09/02 01:06:51;;;;;;;10.50;2.83;;;18.40;99.90;;;;;;5074166;28;20770;-77
2022/09/02 01:09:18;;;;;;;14.75;2.97;;;18.40;99.90;;;;;;5075442;28;20369;-78
2022/09/02 01:11:52;;;;;;;6.07;1.97;;;18.50;99.90;;;;;;5075224;28;20460;-80
2022/09/02 01:14:19;;;;;;;5.15;1.75;;;18.50;99.90;;;;;;5075174;28;20380;-77
2022/09/02 01:16:49;;;;;;;5.60;1.92;;;18.60;99.90;;;;;;5075339;28;20421;-81
2022/09/02 01:19:31;;;;;;;5.22;1.90;;;18.50;99.90;;;;;;5075028;28;20440;-76
2022/09/02 01:21:58;;;;;;;12.20;2.08;;;18.60;99.90;;;;;;5075147;28;20378;-80
2022/09/02 01:24:29;;;;;;;9.63;2.40;;;18.50;99.90;;;;;;5074726;28;20382;-77
2022/09/02 01:26:58;;;;;;;6.07;1.93;;;18.50;99.90;;;;;;5075118;28;20832;-77
2022/09/02 01:29:27;;;;;;;3.35;1.65;;;18.50;99.90;;;;;;5074836;28;20483;-77
2022/09/02 01:31:54;;;;;;;4.37;1.50;;;18.60;99.90;;;;;;5073962;28;20439;-78
2022/09/02 01:34:22;;;;;;;11.90;2.05;;;18.80;99.90;;;;;;5074439;28;20382;-78
2022/09/02 01:36:49;;;;;;;8.82;2.10;;;18.90;99.90;;;;;;5074826;28;20414;-80
2022/09/02 01:39:17;;;;;;;9.13;2.15;;;18.90;99.90;;;;;;5074566;28;20366;-79
2022/09/02 01:41:44;;;;;;;9.32;2.47;;;18.80;99.60;;;;;;5074988;28;20385;-77
2022/09/02 01:44:14;;;;;;;8.15;2.22;;;18.70;99.80;;;;;;5074493;28;20423;-76
2022/09/02 01:46:42;;;;;;;8.10;2.10;;;18.40;99.90;;;;;;5074371;28;20381;-77
2022/09/02 01:49:09;;;;;;;8.57;2.20;;;18.30;99.90;;;;;;5074448;28;20377;-77
2022/09/02 01:51:37;;;;;;;7.78;2.00;;;18.30;99.90;;;;;;5074231;28;20439;-77
2022/09/02 01:54:04;;;;;;;4.35;1.60;;;18.20;99.90;;;;;;5074277;28;20374;-74
2022/09/02 01:56:32;;;;;;;7.80;1.80;;;18.10;99.90;;;;;;5074009;28;20402;-73
2022/09/02 01:58:59;;;;;;;8.93;1.95;;;18.00;99.90;;;;;;5074259;28;20402;-74
2022/09/02 02:01:29;;;;;;;9.38;2.00;;;18.00;99.90;;;;;;5073961;28;20390;-74
2022/09/02 02:03:56;;;;;;;8.90;2.20;;;17.80;99.90;;;;;;5074526;27;20382;-74
2022/09/02 02:06:23;;;;;;;5.05;1.70;;;17.80;99.90;;;;;;5073918;28;20374;-74
2022/09/02 02:08:51;;;;;;;6.13;1.60;;;17.80;99.90;;;;;;5074111;28;20385;-74
2022/09/02 02:11:21;;;;;;;4.35;1.80;;;17.80;99.90;;;;;;5073973;28;20920;-74
2022/09/02 02:13:49;;;;;;;5.00;1.80;;;17.90;99.90;;;;;;5073870;28;20374;-74
2022/09/02 02:16:16;;;;;;;9.60;1.90;;;18.00;99.90;;;;;;5073763;28;20433;-75
2022/09/02 02:18:43;;;;;;;7.05;1.80;;;18.00;99.90;;;;;;5073849;28;20703;-73
2022/09/02 02:21:11;;;;;;;7.53;1.95;;;18.00;99.90;;;;;;5073669;28;20432;-73
2022/09/02 02:23:38;;;;;;;5.13;1.60;;;18.00;99.90;;;;;;5073626;28;20738;-75
2022/09/02 02:26:05;;;;;;;5.68;1.60;;;18.10;99.90;;;;;;5073526;28;20444;-73
2022/09/02 02:28:33;;;;;;;4.32;1.75;;;18.10;99.90;;;;;;5073470;28;20738;-72
2022/09/02 02:31:00;;;;;;;5.30;1.73;;;18.10;99.90;;;;;;5073439;28;20896;-74
2022/09/02 02:33:30;;;;;;;8.77;2.20;;;17.90;99.90;;;;;;5073239;28;20401;-74
2022/09/02 02:35:58;;;;;;;5.65;1.65;;;17.90;99.90;;;;;;5073390;28;20939;-74
2022/09/02 02:38:25;;;;;;;8.53;2.37;;;17.80;99.90;;;;;;5073247;28;20398;-74
2022/09/02 02:40:56;;;;;;;5.57;2.13;;;17.70;99.90;;;;;;5073321;28;20378;-73
2022/09/02 02:43:27;;;;;;;6.93;1.90;;;17.70;99.90;;;;;;5073306;28;20457;-74
2022/09/02 02:45:54;;;;;;;7.60;1.90;;;17.70;99.90;;;;;;5073384;28;20382;-77
2022/09/02 02:48:22;;;;;;;7.88;2.03;;;17.60;99.90;;;;;;5073151;28;20419;-76
2022/09/02 02:50:49;;;;;;;7.45;2.00;;;17.50;99.90;;;;;;5073991;28;20714;-78
2022/09/02 02:53:16;;;;;;;7.78;2.30;;;17.40;99.90;;;;;;5073101;28;20382;-77
2022/09/02 02:55:44;;;;;;;8.38;2.33;;;17.40;99.90;;;;;;5073361;28;20405;-76
2022/09/02 02:58:11;;;;;;;6.28;2.28;;;17.40;99.90;;;;;;5073358;28;20373;-76
2022/09/02 03:00:39;;;;;;;6.82;1.83;;;17.40;99.90;;;;;;5072976;28;20386;-75
2022/09/02 03:03:09;;;;;;;7.38;1.98;;;17.50;99.90;;;;;;5073141;28;20442;-76
2022/09/02 03:05:38;;;;;;;7.07;2.03;;;17.50;99.90;;;;;;5072788;28;20378;-76
2022/09/02 03:08:07;;;;;;;7.35;2.00;;;17.60;99.90;;;;;;5073069;28;20402;-75
2022/09/02 03:10:35;;;;;;;8.50;2.03;;;17.70;99.90;;;;;;5072622;28;20857;-78
2022/09/02 03:13:03;;;;;;;6.47;1.75;;;17.80;99.90;;;;;;5072675;28;20372;-77
2022/09/02 03:15:30;;;;;;;5.72;1.85;;;17.90;99.90;;;;;;5105088;28;20739;-76
2022/09/02 03:17:57;;;;;;;6.30;1.95;;;18.00;99.90;;;;;;5072660;28;20983;-76
2022/09/02 03:20:26;;;;;;;6.47;1.90;;;18.00;99.90;;;;;;5072485;28;20382;-76
2022/09/02 03:22:58;;;;;;;6.38;2.10;;;18.00;99.90;;;;;;5072720;28;20398;-81
2022/09/02 03:25:27;;;;;;;8.45;2.00;;;18.20;99.90;;;;;;5074481;28;20377;-80
2022/09/02 03:27:54;;;;;;;7.20;1.90;;;18.40;99.90;;;;;;5076693;28;20370;-77
2022/09/02 03:30:24;;;;;;;4.85;1.63;;;18.70;99.90;;;;;;5077583;28;20370;-80
2022/09/02 03:32:53;;;;;;;6.78;1.90;;;19.00;99.90;;;;;;5078789;28;20435;-77
2022/09/02 03:35:22;;;;;;;5.45;1.50;;;19.20;99.90;;;;;;5076317;28;20409;-78
2022/09/02 03:37:50;;;;;;;8.15;1.90;;;19.30;99.90;;;;;;5074507;28;20865;-80
2022/09/02 03:40:21;;;;;;;4.90;1.70;;;19.50;99.50;;;;;;5074035;28;20469;-79
2022/09/02 03:42:49;;;;;;;6.10;1.90;;;19.80;99.10;;;;;;5073962;28;20362;-81
2022/09/02 03:45:17;;;;;;;5.63;1.80;;;20.20;97.90;;;;;;5073649;28;20382;-80
2022/09/02 03:47:54;;;;;;;4.93;1.70;;;20.60;97.60;;;;;;5073823;28;20362;-82
2022/09/02 03:50:25;;;;;;;7.40;1.90;;;20.60;96.90;;;;;;5073043;28;20389;-80
2022/09/02 03:52:53;;;;;;;4.25;1.63;;;20.60;96.40;;;;;;5072959;28;20358;-80
2022/09/02 03:55:21;;;;;;;4.82;1.75;;;20.60;95.10;;;;;;5072764;28;20455;-83
2022/09/02 03:57:48;;;;;;;5.78;1.88;;;20.80;94.80;;;;;;5073659;28;20742;-82
2022/09/02 04:00:18;;;;;;;7.82;1.80;;;20.80;94.50;;;;;;5073039;28;20377;-82
2022/09/02 04:02:46;;;;;;;5.38;1.63;;;20.50;94.70;;;;;;5072965;28;20439;-81
2022/09/02 04:05:13;;;;;;;8.20;1.80;;;20.20;95.20;;;;;;5072536;28;20722;-81
2022/09/02 04:07:41;;;;;;;5.50;1.60;;;20.00;95.70;;;;;;5072704;28;20381;-80
2022/09/02 04:10:10;;;;;;;7.45;1.65;;;19.80;96.10;;;;;;5072616;28;20374;-80
2022/09/02 04:12:38;;;;;;;7.38;1.73;;;19.70;96.40;;;;;;5075304;28;20374;-80
2022/09/02 04:15:08;;;;;;;6.27;1.90;;;19.50;97.10;;;;;;5077648;28;20452;-83
2022/09/02 04:17:37;;;;;;;6.38;1.60;;;19.40;97.10;;;;;;5073073;28;20385;-80
2022/09/02 04:20:06;;;;;;;4.50;1.40;;;19.20;97.20;;;;;;5073331;28;20370;-80
2022/09/02 04:22:34;;;;;;;5.90;1.50;;;19.10;97.10;;;;;;5072337;28;20805;-79
2022/09/02 04:25:01;;;;;;;7.07;1.60;;;18.90;97.20;;;;;;5072601;28;20378;-82
2022/09/02 04:27:28;;;;;;;4.30;1.50;;;18.80;97.20;;;;;;5072474;28;20390;-79
2022/09/02 04:29:55;;;;;;;6.28;1.70;;;18.70;97.30;;;;;;5072602;28;20397;-80
2022/09/02 04:32:24;;;;;;;6.50;1.65;;;18.50;97.30;;;;;;5070980;28;20378;-78
2022/09/02 04:34:51;;;;;;;8.23;1.30;;;18.40;97.80;;;;;;5072210;28;20430;-81
2022/09/02 04:37:18;;;;;;;5.30;1.20;;;18.10;97.30;;;;;;5072595;28;20427;-81
2022/09/02 04:39:45;;;;;;;3.70;1.38;;;18.00;97.40;;;;;;5072678;28;20378;-79
2022/09/02 04:42:12;;;;;;;6.93;1.50;;;17.80;97.60;;;;;;5075171;28;20794;-80
2022/09/02 04:44:40;;;;;;;5.70;1.40;;;17.60;98.20;;;;;;5074864;28;20385;-80
2022/09/02 04:47:07;;;;;;;4.67;1.30;;;17.50;98.70;;;;;;5074247;28;20730;-81
2022/09/02 04:49:34;;;;;;;3.03;1.17;;;17.40;98.60;;;;;;5077505;28;20370;-81
2022/09/02 04:52:01;;;;;;;6.07;1.45;;;17.20;99.00;;;;;;5087164;28;20881;-81
2022/09/02 04:54:29;;;;;;;4.95;1.38;;;17.10;99.60;;;;;;5087511;28;20838;-81
2022/09/02 04:56:56;;;;;;;4.90;1.30;;;17.00;99.70;;;;;;5090929;28;20882;-80
2022/09/02 04:59:23;;;;;;;4.33;1.37;;;17.00;99.90;;;;;;5088017;28;20447;-79
2022/09/02 05:01:51;;;;;;;6.25;1.45;;;16.90;99.90;;;;;;5074145;28;20695;-78
2022/09/02 05:04:18;;;;;;;5.25;1.38;;;16.80;99.90;;;;;;5073659;28;20370;-81
2022/09/02 05:06:45;;;;;;;7.00;1.50;;;16.70;99.90;;;;;;5076232;28;20419;-81
2022/09/02 05:09:13;;;;;;;3.42;1.30;;;16.70;99.90;;;;;;5076675;28;20366;-80
2022/09/02 05:11:40;;;;;;;6.80;1.60;;;16.60;99.90;;;;;;5076399;28;20808;-81
2022/09/02 05:14:07;;;;;;;4.60;1.50;;;16.60;99.90;;;;;;5076145;28;20395;-81
2022/09/02 05:16:39;;;;;;;6.85;1.40;;;16.50;99.90;;;;;;5075624;28;20410;-81
2022/09/02 05:19:09;;;;;;;7.03;1.43;;;16.40;99.90;;;;;;5076005;28;20373;-80
2022/09/02 05:21:40;;;;;;;7.30;1.50;;;16.40;99.90;;;;;;5076853;28;20717;-80
2022/09/02 05:24:08;;;;;;;7.63;1.30;;;16.40;99.90;;;;;;5083476;28;20362;-82
2022/09/02 05:26:39;;;;;;;5.70;1.30;;;16.40;99.90;;;;;;5080294;28;20386;-81
2022/09/02 05:29:07;;;;;;;6.45;1.48;;;16.30;99.90;;;;;;5079244;28;20402;-79
2022/09/02 05:31:35;;;;;;;7.93;1.53;;;16.30;99.90;;;;;;5077327;28;20424;-80
2022/09/02 05:34:04;;;;;;;7.82;1.48;;;16.20;99.90;;;;;;5079594;28;20559;-80
2022/09/02 05:36:31;;;;;;;7.33;1.60;;;16.20;99.90;;;;;;5079100;28;20386;-81
2022/09/02 05:39:01;;;;;;;8.30;1.37;;;16.10;99.90;;;;;;5080113;28;20893;-81
2022/09/02 05:41:28;;;;;;;7.07;1.50;;;16.10;99.90;;;;;;5079752;28;20378;-81
2022/09/02 05:43:59;;;;;;;4.25;1.50;;;16.00;99.90;;;;;;5080408;28;20711;-81
2022/09/02 05:46:28;;;;;;;4.15;1.30;;;15.90;99.90;;;;;;5080872;28;20865;-84
2022/09/02 05:49:06;;;;;;;5.15;1.23;;;15.80;99.90;;;;;;5078912;28;20426;-84
2022/09/02 05:51:47;;;;;;;4.43;1.30;;;15.70;99.90;;;;;;5079742;28;20397;-82
2022/09/02 05:54:21;;;;;;;5.63;1.40;;;15.60;99.90;;;;;;5081354;28;20414;-87
2022/09/02 05:56:52;;;;;;;4.45;1.40;;;15.60;99.90;;;;;;5080155;28;20374;-83
2022/09/02 05:59:21;;;;;;;3.73;1.30;;;15.60;99.90;;;;;;5079316;28;20417;-82
2022/09/02 06:01:49;;;;;;;4.22;1.30;;;15.60;99.90;;;;;;5078833;28;20456;-85
2022/09/02 06:04:16;;;;;;;5.15;1.40;;;15.50;99.90;;;;;;5079167;28;20694;-86
2022/09/02 06:06:44;;;;;;;5.72;1.50;;;15.50;99.90;;;;;;5074673;28;20870;-83
2022/09/02 06:09:13;;;;;;;5.00;1.38;;;15.50;99.90;;;;;;5074664;28;20374;-84
2022/09/02 06:11:48;;;;;;;5.75;1.40;;;15.50;99.90;;;;;;5074441;28;20462;-86
2022/09/02 06:14:20;;;;;;;4.77;1.40;;;15.50;99.90;;;;;;5075770;28;20415;-86
2022/09/02 06:16:49;;;;;;;9.55;1.40;;;15.50;99.90;;;;;;5074594;28;20382;-86
2022/09/02 06:19:17;;;;;;;5.63;1.42;;;15.50;99.90;;;;;;5072945;28;20385;-86
2022/09/02 06:21:45;;;;;;;7.35;1.60;;;15.40;99.90;;;;;;5074378;28;20385;-83
2022/09/02 06:24:13;;;;;;;4.88;1.50;;;15.40;99.90;;;;;;5076502;28;20412;-88
2022/09/02 06:26:43;;;;;;;4.97;1.60;;;15.40;99.90;;;;;;5077549;28;20382;-80
2022/09/02 06:29:10;;;;;;;4.57;1.23;;;15.30;99.90;;;;;;5079374;28;20378;-84
2022/09/02 06:31:41;;;;;;;4.57;1.30;;;15.30;99.90;;;;;;5078789;28;20378;-82
2022/09/02 06:34:11;;;;;;;5.63;1.33;;;15.20;99.90;;;;;;5073854;28;20435;-80
2022/09/02 06:36:38;;;;;;;8.20;1.60;;;15.10;99.90;;;;;;5073828;28;20434;-81
2022/09/02 06:39:06;;;;;;;6.72;1.33;;;15.20;99.90;;;;;;5074081;28;20786;-84
2022/09/02 06:41:33;;;;;;;10.57;1.52;;;15.10;99.90;;;;;;5073774;28;20469;-80
2022/09/02 06:44:04;;;;;;;7.00;1.50;;;15.10;99.90;;;;;;5073721;28;20378;-77
2022/09/02 06:46:34;;;;;;;4.63;1.40;;;15.10;99.90;;;;;;5074291;28;20752;-84
2022/09/02 06:49:01;;;;;;;7.00;1.63;;;15.10;99.90;;;;;;5076418;28;20381;-80
2022/09/02 06:51:33;;;;;;;5.00;1.40;;;15.00;99.90;;;;;;5078925;28;20377;-83
2022/09/02 06:54:00;;;;;;;6.60;1.67;;;15.00;99.90;;;;;;5081778;28;20379;-84
2022/09/02 06:56:28;;;;;;;9.07;1.60;;;15.00;99.90;;;;;;5080948;28;20757;-83
2022/09/02 06:58:56;;;;;;;8.48;1.80;;;15.00;99.90;;;;;;5079191;28;20377;-81
2022/09/02 07:01:27;;;;;;;6.03;1.58;;;15.00;99.90;;;;;;5078137;28;20461;-79
2022/09/02 07:06:45;;;;;;;7.07;1.80;;;15.00;99.90;;;;;;5033356;28;20409;-83
2022/09/02 07:09:15;;;;;;;4.85;1.70;;;14.90;99.90;;;;;;5032033;28;20374;-80
2022/09/02 07:11:46;;;;;;;4.90;1.80;;;14.80;99.90;;;;;;5031917;28;20492;-82
2022/09/02 07:14:15;;;;;;;8.23;1.80;;;14.80;99.90;;;;;;5031307;28;20488;-81
2022/09/02 07:16:50;;;;;;;11.70;2.13;;;14.80;99.90;;;;;;5031080;28;20535;-83
2022/09/02 07:19:18;;;;;;;7.75;1.90;;;14.80;99.90;;;;;;5031125;28;20501;-82
2022/09/02 07:21:46;;;;;;;7.35;1.80;;;14.80;99.90;;;;;;5031233;28;20412;-81
2022/09/02 07:24:14;;;;;;;8.13;1.73;;;14.70;99.90;;;;;;5031097;28;20762;-82
2022/09/02 07:26:42;;;;;;;7.20;2.15;;;14.70;99.90;;;;;;5031153;28;20789;-83
2022/09/02 07:29:11;;;;;;;6.85;1.83;;;14.70;99.90;;;;;;5030690;28;20381;-82
2022/09/02 07:31:43;;;;;;;6.93;1.85;;;14.60;99.90;;;;;;5031436;28;20440;-87
2022/09/02 07:34:11;;;;;;;6.85;2.00;;;14.60;99.90;;;;;;5031134;28;20948;-83
2022/09/02 07:36:39;;;;;;;9.40;2.00;;;14.60;99.90;;;;;;5031163;28;20806;-83
2022/09/02 07:39:09;;;;;;;7.47;1.90;;;14.60;99.90;;;;;;5032980;28;20456;-81
2022/09/02 07:41:43;;;;;;;6.10;2.10;;;14.50;99.90;;;;;;5038071;28;20386;-85
2022/09/02 07:44:11;;;;;;;8.65;2.15;;;14.60;99.90;;;;;;5067432;28;20392;-82
2022/09/02 07:46:41;;;;;;;8.97;2.20;;;14.60;99.90;;;;;;5079889;28;20396;-83
2022/09/02 07:49:11;;;;;;;8.38;2.20;;;14.60;99.90;;;;;;5081924;28;20382;-81
2022/09/02 07:51:41;;;;;;;10.17;2.20;;;14.50;99.90;;;;;;5080839;28;20460;-85
2022/09/02 07:54:13;;;;;;;8.20;2.10;;;14.50;99.90;;;;;;5079275;28;20386;-83
2022/09/02 07:56:42;;;;;;;6.38;1.98;;;14.50;99.90;;;;;;5077206;28;20412;-83
2022/09/02 07:59:16;;;;;;;9.57;2.60;;;14.40;99.90;;;;;;5075852;28;20412;-86
2022/09/02 08:01:44;;;;;;;9.20;2.70;;;14.50;99.90;;;;;;5077363;28;20437;-83
2022/09/02 08:04:12;;;;;;;8.68;2.22;;;14.50;99.90;;;;;;5076217;28;20377;-83
2022/09/02 08:06:42;;;;;;;7.80;2.30;;;14.50;99.90;;;;;;5075962;28;20370;-86
2022/09/02 08:09:10;;;;;;;9.00;2.53;;;14.40;99.90;;;;;;5075288;28;20761;-87
2022/09/02 08:11:45;;;;;;;8.40;2.50;;;14.40;99.90;;;;;;5075008;28;20382;-84
2022/09/02 08:14:16;;;;;;;9.43;2.23;;;14.30;99.90;;;;;;5074630;28;20450;-87
2022/09/02 08:16:45;;;;;;;8.77;2.30;;;14.30;99.90;;;;;;5075485;28;20960;-82
2022/09/02 08:19:13;;;;;;;9.73;2.33;;;14.30;99.90;;;;;;5075683;28;20405;-87
2022/09/02 08:21:40;;;;;;;10.20;2.30;;;14.30;99.90;;;;;;5074820;28;20457;-90
2022/09/02 08:24:09;;;;;;;8.48;2.53;;;14.20;99.90;;;;;;5076122;28;20370;-87
2022/09/02 08:26:37;;;;;;;6.55;2.20;;;14.20;99.90;;;;;;5076113;28;20382;-82
2022/09/02 08:29:08;;;;;;;8.25;2.20;;;14.20;99.90;;;;;;5075253;28;20369;-83
2022/09/02 08:31:37;;;;;;;7.03;2.65;;;14.20;99.90;;;;;;5074969;28;20757;-84
2022/09/02 08:34:05;;;;;;;10.15;2.60;;;14.20;99.90;;;;;;5074025;28;20393;-84
2022/09/02 08:36:32;;;;;;;9.15;2.90;;;14.20;99.90;;;;;;5074896;28;20412;-81
2022/09/02 08:39:02;;;;;;;9.38;2.60;;;14.30;99.90;;;;;;5075729;28;20366;-83
2022/09/02 08:42:01;;;;;;;9.68;2.50;;;14.20;99.90;;;;;;5079183;28;20848;-85
2022/09/02 08:44:28;;;;;;;11.10;2.53;;;14.20;99.90;;;;;;5078035;28;20753;-87
2022/09/02 08:47:03;;;;;;;10.13;2.78;;;14.20;99.90;;;;;;5079391;28;20416;-84
2022/09/02 08:49:46;;;;;;;9.93;2.70;;;14.20;99.90;;;;;;5079238;28;20370;-86
2022/09/02 08:52:31;;;;;;;15.75;2.80;;;14.20;99.90;;;;;;5080132;28;20381;-84
2022/09/02 08:54:58;;;;;;;13.75;2.67;;;14.20;99.90;;;;;;5077619;28;20385;-83
2022/09/02 08:57:26;;;;;;;10.90;2.65;;;14.10;99.90;;;;;;5079401;28;20382;-85
2022/09/02 09:00:00;;;;;;;11.70;2.50;;;14.20;99.90;;;;;;5078201;28;20366;-86
2022/09/02 09:02:31;;;;;;;11.23;2.60;;;14.10;99.90;;;;;;5077274;28;20434;-84
2022/09/02 09:05:16;;;;;;;11.85;2.67;;;14.10;99.90;;;;;;5081178;28;20362;-84
2022/09/02 09:08:10;;;;;;;14.13;2.90;;;14.10;99.90;;;;;;5079463;28;20409;-84
2022/09/02 09:10:58;;;;;;;13.68;3.10;;;14.10;99.90;;;;;;5079067;28;20691;-83
2022/09/02 09:13:53;;;;;;;12.20;2.72;;;14.10;99.90;;;;;;5078893;28;20415;-83
2022/09/02 09:16:41;;;;;;;13.23;2.63;;;14.10;99.90;;;;;;5077393;28;20406;-83
2022/09/02 09:19:21;;;;;;;13.45;2.88;;;14.10;99.90;;;;;;5078813;28;20366;-84
2022/09/02 09:21:59;;;;;;;15.48;3.10;;;14.10;99.90;;;;;;5078109;28;20358;-82
2022/09/02 09:24:39;;;;;;;13.68;2.85;;;14.10;99.90;;;;;;5078130;28;20398;-84
2022/09/02 09:27:16;;;;;;;11.50;2.90;;;14.00;99.90;;;;;;5079137;28;20358;-82
2022/09/02 09:29:43;;;;;;;11.45;2.80;;;13.90;99.90;;;;;;5084080;28;20374;-83
2022/09/02 09:32:26;;;;;;;11.83;2.70;;;13.90;99.90;;;;;;5078962;28;20385;-83
2022/09/02 09:34:56;;;;;;;9.63;2.65;;;13.80;99.90;;;;;;5078204;28;20392;-82
2022/09/02 09:37:53;;;;;;;11.43;2.90;;;13.80;99.90;;;;;;5078889;28;20846;-82
2022/09/02 09:40:23;;;;;;;11.77;3.13;;;13.70;99.90;;;;;;5036119;28;20735;-81
2022/09/02 09:42:56;;;;;;;13.13;3.20;;;13.70;99.90;;;;;;5035711;28;20378;-82
2022/09/02 09:45:31;;;;;;;12.35;3.28;;;13.60;99.90;;;;;;5036068;28;20381;-80
2022/09/02 09:48:18;;;;;;;14.18;3.45;;;13.60;99.90;;;;;;5036295;28;20452;-82
2022/09/02 09:50:47;;;;;;;12.63;2.97;;;13.50;99.90;;;;;;5033068;28;20426;-82
2022/09/02 09:53:28;;;;;;;13.05;3.10;;;13.40;99.90;;;;;;5036897;28;20417;-81
2022/09/02 09:56:00;;;;;;;14.57;3.40;;;13.40;99.90;;;;;;5035444;28;20405;-82
2022/09/02 09:58:35;;;;;;;14.30;3.10;;;13.40;99.90;;;;;;5035948;28;20374;-80
2022/09/02 10:01:12;;;;;;;11.13;3.00;;;13.40;99.90;;;;;;5035793;28;20427;-82
2022/09/02 10:03:56;;;;;;;13.45;3.13;;;13.40;99.90;;;;;;5034916;28;20381;-82
2022/09/02 10:06:47;;;;;;;16.10;3.05;;;13.40;99.90;;;;;;5039195;28;20386;-82
2022/09/02 10:09:19;;;;;;;16.98;3.00;;;13.40;99.90;;;;;;5039418;28;20369;-81
2022/09/02 10:12:06;;;;;;;11.15;2.90;;;13.40;99.90;;;;;;5040405;28;20385;-81
2022/09/02 10:14:45;;;;;;;13.50;2.87;;;13.40;99.90;;;;;;5018559;28;20781;-82
2022/09/02 10:17:40;;;;;;;11.85;2.88;;;13.40;99.90;;;;;;5044457;28;20388;-83
2022/09/02 10:20:23;;;;;;;12.73;2.70;;;13.50;99.90;;;;;;5057283;28;20376;-83
2022/09/02 10:23:11;;;;;;;11.90;2.80;;;13.40;99.90;;;;;;5056298;28;20382;-83
2022/09/02 10:25:57;;;;;;;11.45;2.92;;;13.40;99.90;;;;;;5037983;28;20383;-81
2022/09/02 10:28:36;;;;;;;14.48;3.13;;;13.40;99.90;;;;;;5056434;28;20372;-81
2022/09/02 10:31:16;;;;;;;16.85;3.10;;;13.30;99.90;;;;;;5015250;28;20902;-82
2022/09/02 10:34:16;;;;;;;16.63;3.33;;;13.40;99.90;;;;;;5015426;28;20442;-82
2022/09/02 10:37:25;;;;;;;14.25;3.15;;;13.40;99.90;;;;;;4999890;28;20968;-82
2022/09/02 10:39:52;;;;;;;15.77;3.03;;;13.40;99.90;;;;;;4996549;28;20510;-82
2022/09/02 10:42:29;;;;;;;17.10;3.70;;;13.40;99.90;;;;;;4996461;28;20758;-82
2022/09/02 10:45:30;;;;;;;14.27;3.15;;;13.40;99.90;;;;;;4995684;28;20393;-82
2022/09/02 10:48:14;;;;;;;15.50;3.20;;;13.40;99.90;;;;;;4937197;29;20469;-87
2022/09/02 10:50:53;;;;;;;14.05;2.92;;;13.40;99.90;;;;;;4936408;29;20406;-84
2022/09/02 10:53:33;;;;;;;17.30;3.20;;;13.40;99.90;;;;;;4959595;29;20464;-82
2022/09/02 10:56:09;;;;;;;17.92;3.17;;;13.40;99.90;;;;;;4959037;28;20524;-81
2022/09/02 10:59:04;;;;;;;12.80;2.83;;;13.50;99.90;;;;;;4957253;29;20471;-83
2022/09/02 11:01:40;;;;;;;12.68;2.60;;;13.40;99.90;;;;;;4956358;29;20392;-81
2022/09/02 11:04:10;;;;;;;14.02;2.50;;;13.50;99.90;;;;;;4956415;28;20440;-81
2022/09/02 11:06:42;;;;;;;15.90;3.03;;;13.50;99.90;;;;;;4956737;29;20396;-81
2022/09/02 11:09:39;;;;;;;11.77;2.60;;;13.50;99.90;;;;;;4959301;28;20442;-82
2022/09/02 11:12:20;;;;;;;14.35;3.08;;;13.40;99.90;;;;;;4953933;28;20805;-81
2022/09/02 11:14:59;;;;;;;12.73;2.80;;;13.40;99.90;;;;;;4959359;28;20466;-81
2022/09/02 11:17:43;;;;;;;18.95;3.47;;;13.40;99.90;;;;;;4972858;28;20417;-83
2022/09/02 11:20:13;;;;;;;15.63;3.10;;;13.40;99.90;;;;;;4972262;28;20826;-83
2022/09/02 11:22:54;;;;;;;15.20;2.73;;;13.40;99.90;;;;;;4984805;28;20944;-82
2022/09/02 11:25:45;;;;;;;13.27;3.03;;;13.40;99.90;;;;;;5051167;28;20450;-82
2022/09/02 11:28:39;;;;;;;11.85;3.00;;;13.40;99.90;;;;;;5065126;28;20382;-82
2022/09/02 11:31:19;;;;;;;14.23;3.17;;;13.40;99.90;;;;;;5073029;28;20398;-82
2022/09/02 11:34:03;;;;;;;11.52;2.67;;;13.40;99.90;;;;;;5072790;28;20402;-82
2022/09/02 11:36:36;;;;;;;15.23;3.25;;;13.50;99.90;;;;;;5073116;28;20733;-81
2022/09/02 11:39:16;;;;;;;13.20;3.05;;;13.50;99.90;;;;;;5073065;28;20370;-82
2022/09/02 11:42:19;;;;;;;12.93;2.80;;;13.40;99.90;;;;;;5073160;28;20880;-82
2022/09/02 11:45:16;;;;;;;16.13;3.13;;;13.40;99.90;;;;;;5072879;28;20445;-81
2022/09/02 11:48:12;;;;;;;15.48;3.00;;;13.40;99.90;;;;;;5071590;28;20476;-81
2022/09/02 11:51:07;;;;;;;11.67;2.97;;;13.30;99.90;;;;;;5069075;28;20374;-82
2022/09/02 11:53:40;;;;;;;12.75;2.88;;;13.30;99.90;;;;;;5073290;28;20798;-81
2022/09/02 11:56:16;;;;;;;15.70;3.13;;;13.40;99.90;;;;;;5071896;28;20437;-81
2022/09/02 11:58:51;;;;;;;17.23;2.90;;;13.40;99.90;;;;;;5071629;28;20378;-81
2022/09/02 12:01:29;;;;;;;13.80;2.70;;;13.40;99.90;;;;;;5072999;28;20376;-81
2022/09/02 12:04:04;;;;;;;12.88;2.72;;;13.30;99.90;;;;;;5073318;28;20462;-82
2022/09/02 12:06:32;;;;;;;16.35;3.00;;;13.30;99.90;;;;;;5072480;28;20449;-81
2022/09/02 12:09:03;;;;;;;14.25;2.70;;;13.40;99.90;;;;;;5072661;28;20380;-81
2022/09/02 12:11:44;;;;;;;18.30;3.20;;;13.40;99.90;;;;;;5072703;28;20421;-81
2022/09/02 12:14:34;;;;;;;19.60;3.40;;;13.40;99.90;;;;;;5072537;28;20424;-81
2022/09/02 12:17:08;;;;;;;21.67;3.50;;;13.30;99.90;;;;;;5076596;28;20781;-82
2022/09/02 12:19:44;;;;;;;15.38;3.50;;;13.40;99.90;;;;;;5076719;28;20362;-81
2022/09/02 12:22:17;;;;;;;17.83;3.33;;;13.30;99.90;;;;;;5076572;28;20427;-81
2022/09/02 12:24:57;;;;;;;25.88;3.58;;;13.30;99.90;;;;;;5076410;28;20378;-81
2022/09/02 12:27:38;;;;;;;24.27;3.08;;;13.30;99.90;;;;;;5076370;28;20362;-81
2022/09/02 12:30:09;;;;;;;21.05;3.30;;;13.30;99.90;;;;;;5076644;28;20457;-81
2022/09/02 12:32:51;;;;;;;17.10;3.20;;;13.30;99.90;;;;;;5076089;28;20444;-81
2022/09/02 12:35:40;;;;;;;25.58;3.63;;;13.30;99.90;;;;;;5076451;28;20439;-81
2022/09/02 12:38:10;;;;;;;24.02;3.42;;;13.30;99.90;;;;;;5076809;28;20372;-81
2022/09/02 12:41:05;;;;;;;22.48;3.35;;;13.30;99.90;;;;;;5076784;28;20385;-81
2022/09/02 12:43:56;;;;;;;20.35;3.65;;;13.30;99.90;;;;;;5076307;28;20838;-81
2022/09/02 12:46:33;;;;;;;19.63;3.43;;;13.20;99.90;;;;;;5076396;28;20358;-82
2022/09/02 12:49:20;;;;;;;19.50;3.30;;;13.30;99.90;;;;;;5075990;28;20365;-82
2022/09/02 12:51:56;;;;;;;17.92;3.17;;;13.20;99.90;;;;;;5075954;28;20376;-82
2022/09/02 12:54:48;;;;;;;13.65;3.25;;;13.30;99.90;;;;;;5076262;28;20413;-82
2022/09/02 12:57:18;;;;;;;19.00;3.20;;;13.30;99.90;;;;;;5076011;28;20707;-81
2022/09/02 12:59:47;;;;;;;17.30;3.10;;;13.40;99.90;;;;;;5075853;28;20494;-79
2022/09/02 13:02:44;;;;;;;13.23;3.27;;;13.40;99.90;;;;;;5075802;28;20408;-80
2022/09/02 13:05:31;;;;;;;15.15;3.38;;;13.30;99.90;;;;;;5075859;28;20358;-81
2022/09/02 13:08:19;;;;;;;14.13;3.00;;;13.30;99.90;;;;;;5074462;28;20461;-82
2022/09/02 13:11:06;;;;;;;17.13;3.25;;;13.20;99.90;;;;;;5075789;28;20369;-81
2022/09/02 13:13:36;;;;;;;12.63;2.75;;;13.00;99.90;;;;;;5075804;28;20366;-81
2022/09/02 13:16:08;;;;;;;16.83;3.08;;;12.90;99.90;;;;;;5075967;28;20897;-81